aviador You're here:

KHKS Decoded Metar

JACKSON/HAWKINS in MS, USA
Report Time2017-04-29 16:53:00
UTC Time2017-04-29 17:45:18
Flight Rules vfr VFR
Wind170° at 20 Gusting to 31 kt
W.Decomp.*RWY 16: 19.7 kt HW 3.5 kt RCW
RWY 11: 10.0 kt HW 17.3 kt RCW
W.Rank170° ranks 1
Current wind is above 170° avg. (7.3)
Visibility9999 m
Phenomena:N/A
Clouds:Few 034 Hf
Scattered 041 Hf
Broken 050 Hf
Expected CloudBase > 3,200 ft AGL from Temp-Dew spread
Ceiling5,000 ft
Temp29°C (ISA +15)
Dew Point21°C (62% RH)
Heat Index31.3°C
AAT26.0°C
QNH1013 hPa
Density Alt2,372 ft
Elevation354 ft
Report Wrong Elevation
Raw Report
KHKS 291653Z 17020G31KT 10SM FEW034 SCT041 BKN050 29/21 A2992 RMK
AO2 PK WND 15035/1627 SLP121 T02890211=

Extra information for KHKS:More info

Metar Taf Metar & Taf Last 4 Metars F.Rules Stats Wind Profile Meteogram Temp Stats Airport Information Weather charts Add Link Nearby VenuesMetar ALERT Operation Metar Decoded Social comments

AIRNAV info for KHKS